Map

Track Data

SID SEASON NUMBER BASIN SUBBASIN NAME ISO_TIME NATURE LAT LON WMO_WIND WMO_PRES WMO_AGENCY TRACK_TYPE DIST2LAND LANDFALL IFLAG USA_AGENCY USA_ATCF_ID USA_LAT USA_LON USA_RECORD USA_STATUS USA_WIND USA_PRES USA_SSHS USA_R34_NE USA_R34_SE USA_R34_SW USA_R34_NW USA_R50_NE USA_R50_SE USA_R50_SW USA_R50_NW USA_R64_NE USA_R64_SE USA_R64_SW USA_R64_NW USA_POCI USA_ROCI USA_RMW USA_EYE TOKYO_LAT TOKYO_LON TOKYO_GRADE TOKYO_WIND TOKYO_PRES TOKYO_R50_DIR TOKYO_R50_LONG TOKYO_R50_SHORT TOKYO_R30_DIR TOKYO_R30_LONG TOKYO_R30_SHORT TOKYO_LAND CMA_LAT CMA_LON CMA_CAT CMA_WIND CMA_PRES HKO_LAT HKO_LON HKO_CAT HKO_WIND HKO_PRES NEWDELHI_LAT NEWDELHI_LON NEWDELHI_GRADE NEWDELHI_WIND NEWDELHI_PRES NEWDELHI_CI NEWDELHI_DP NEWDELHI_POCI REUNION_LAT REUNION_LON REUNION_TYPE REUNION_WIND REUNION_PRES REUNION_TNUM REUNION_CI REUNION_RMW REUNION_R34_NE REUNION_R34_SE REUNION_R34_SW REUNION_R34_NW REUNION_R50_NE REUNION_R50_SE REUNION_R50_SW REUNION_R50_NW REUNION_R64_NE REUNION_R64_SE REUNION_R64_SW REUNION_R64_NW BOM_LAT BOM_LON BOM_TYPE BOM_WIND BOM_PRES BOM_TNUM BOM_CI BOM_RMW BOM_R34_NE BOM_R34_SE BOM_R34_SW BOM_R34_NW BOM_R50_NE BOM_R50_SE BOM_R50_SW BOM_R50_NW BOM_R64_NE BOM_R64_SE BOM_R64_SW BOM_R64_NW BOM_ROCI BOM_POCI BOM_EYE BOM_POS_METHOD BOM_PRES_METHOD NADI_LAT NADI_LON NADI_CAT NADI_WIND NADI_PRES WELLINGTON_LAT WELLINGTON_LON WELLINGTON_WIND WELLINGTON_PRES DS824_LAT DS824_LON DS824_STAGE DS824_WIND DS824_PRES TD9636_LAT TD9636_LON TD9636_STAGE TD9636_WIND TD9636_PRES TD9635_LAT TD9635_LON TD9635_WIND TD9635_PRES TD9635_ROCI NEUMANN_LAT NEUMANN_LON NEUMANN_CLASS NEUMANN_WIND NEUMANN_PRES MLC_LAT MLC_LON MLC_CLASS MLC_WIND MLC_PRES USA_GUST BOM_GUST BOM_GUST_PER REUNION_GUST REUNION_GUST_PER USA_SEAHGT USA_SEARAD_NE USA_SEARAD_SE USA_SEARAD_SW USA_SEARAD_NW STORM_SPEED STORM_DIR
1933268N29325 1933 60 NA NA NOT_NAMED 1933-09-24 12:00:00 TS 29.4000 -35.0000 45 hurdat_atl main 1772 1772 O_____________ hurdat_atl AL151933 29.4000 -35.0000 TS 45 0 16 344
1933268N29325 1933 60 NA NA NOT_NAMED 1933-09-24 15:00:00 TS 30.1476 -35.2493 main 1792 1792 P_____________ AL151933 30.1476 -35.2493 TS 47 0 16 344
1933268N29325 1933 60 NA NA NOT_NAMED 1933-09-24 18:00:00 TS 30.9000 -35.5000 50 hurdat_atl main 1826 1826 O_____________ hurdat_atl AL151933 30.9000 -35.5000 TS 50 0 16 344
1933268N29325 1933 60 NA NA NOT_NAMED 1933-09-24 21:00:00 TS 31.6574 -35.7503 main 1863 1863 P_____________ AL151933 31.6574 -35.7503 TS 52 0 16 344
1933268N29325 1933 60 NA NA NOT_NAMED 1933-09-25 00:00:00 TS 32.4000 -36.0000 55 hurdat_atl main 1892 1892 O_____________ hurdat_atl AL151933 32.4000 -36.0000 TS 55 0 15 344
1933268N29325 1933 60 NA NA NOT_NAMED 1933-09-25 03:00:00 TS 33.1149 -36.2504 main 1933 1933 P_____________ AL151933 33.1149 -36.2504 TS 55 0 15 343
1933268N29325 1933 60 NA NA NOT_NAMED 1933-09-25 06:00:00 TS 33.8000 -36.5000 55 hurdat_atl main 1967 1930 O_____________ hurdat_atl AL151933 33.8000 -36.5000 TS 55 0 14 342
1933268N29325 1933 60 NA NA NOT_NAMED 1933-09-25 09:00:00 TS 34.4650 -36.7724 main 1921 1859 P_____________ AL151933 34.4650 -36.7724 TS 57 0 14 342
1933268N29325 1933 60 NA NA NOT_NAMED 1933-09-25 12:00:00 TS 35.1000 -37.0000 60 hurdat_atl main 1859 1803 O_____________ hurdat_atl AL151933 35.1000 -37.0000 TS 60 0 13 346
1933268N29325 1933 60 NA NA NOT_NAMED 1933-09-25 15:00:00 TS 35.7149 -37.1525 main 1797 1748 P_____________ AL151933 35.7149 -37.1525 TS 60 0 12 352
1933268N29325 1933 60 NA NA NOT_NAMED 1933-09-25 18:00:00 TS 36.3000 -37.2000 60 hurdat_atl main 1748 1709 O_____________ hurdat_atl AL151933 36.3000 -37.2000 TS 60 0 11 1
1933268N29325 1933 60 NA NA NOT_NAMED 1933-09-25 21:00:00 TS 36.8574 -37.1525 main 1701 1674 P_____________ AL151933 36.8574 -37.1525 TS 62 0 11 8
1933268N29325 1933 60 NA NA NOT_NAMED 1933-09-26 00:00:00 TS 37.4000 -37.0000 65 hurdat_atl main 1674 1649 O_____________ hurdat_atl AL151933 37.4000 -37.0000 HU 65 1 11 15
1933268N29325 1933 60 NA NA NOT_NAMED 1933-09-26 03:00:00 TS 37.9200 -36.7869 main 1649 1625 P_____________ AL151933 37.9200 -36.7869 HU 65 1 12 20
1933268N29325 1933 60 NA NA NOT_NAMED 1933-09-26 06:00:00 TS 38.5000 -36.5000 65 hurdat_atl main 1625 1597 O_____________ hurdat_atl AL151933 38.5000 -36.5000 HU 65 1 14 21
1933268N29325 1933 60 NA NA NOT_NAMED 1933-09-26 09:00:00 TS 39.1976 -36.1647 main 1597 1572 P_____________ AL151933 39.1976 -36.1647 HU 65 1 16 20
1933268N29325 1933 60 NA NA NOT_NAMED 1933-09-26 12:00:00 TS 40.0000 -35.8000 65 hurdat_atl main 1572 1545 O_____________ hurdat_atl AL151933 40.0000 -35.8000 HU 65 1 18 18
1933268N29325 1933 60 NA NA NOT_NAMED 1933-09-26 15:00:00 TS 40.8699 -35.4564 main 1538 1517 P_____________ AL151933 40.8699 -35.4564 HU 62 0 19 16
1933268N29325 1933 60 NA NA NOT_NAMED 1933-09-26 18:00:00 TS 41.8000 -35.1000 60 hurdat_atl main 1513 1491 O_____________ hurdat_atl AL151933 41.8000 -35.1000 TS 60 0 19 17
1933268N29325 1933 60 NA NA NOT_NAMED 1933-09-26 21:00:00 TS 42.7350 -34.7066 main 1493 1476 P_____________ AL151933 42.7350 -34.7066 TS 60 0 20 17
1933268N29325 1933 60 NA NA NOT_NAMED 1933-09-27 00:00:00 TS 43.7000 -34.3000 60 hurdat_atl main 1475 1461 O_____________ hurdat_atl AL151933 43.7000 -34.3000 TS 60 0 21 16
1933268N29325 1933 60 NA NA NOT_NAMED 1933-09-27 03:00:00 TS 44.7071 -33.9205 main 1465 1458 P_____________ AL151933 44.7071 -33.9205 TS 57 0 21 16
1933268N29325 1933 60 NA NA NOT_NAMED 1933-09-27 06:00:00 ET 45.7000 -33.5000 55 hurdat_atl main 1462 1460 O_____________ hurdat_atl AL151933 45.7000 -33.5000 EX 55 -4 20 18
1933268N29325 1933 60 NA NA NOT_NAMED 1933-09-27 09:00:00 ET 46.6295 -33.0005 main 1478 1475 P_____________ AL151933 46.6295 -33.0005 EX 55 -4 20 23
1933268N29325 1933 60 NA NA NOT_NAMED 1933-09-27 12:00:00 ET 47.5000 -32.4000 55 hurdat_atl main 1506 1496 O_____________ hurdat_atl AL151933 47.5000 -32.4000 EX 55 -4 19 28
1933268N29325 1933 60 NA NA NOT_NAMED 1933-09-27 15:00:00 ET 48.3146 -31.6999 main 1496 1443 P_____________ AL151933 48.3146 -31.6999 EX 55 -4 19 32
1933268N29325 1933 60 NA NA NOT_NAMED 1933-09-27 18:00:00 ET 49.1000 -30.9000 55 hurdat_atl main 1443 1381 O_____________ hurdat_atl AL151933 49.1000 -30.9000 EX 55 -4 19 34
1933268N29325 1933 60 NA NA NOT_NAMED 1933-09-27 21:00:00 ET 49.8993 -30.0419 main 1375 1296 P_____________ AL151933 49.8993 -30.0419 EX 55 -4 20 36
1933268N29325 1933 60 NA NA NOT_NAMED 1933-09-28 00:00:00 ET 50.7000 -29.1000 55 hurdat_atl main 1289 1209 O_____________ hurdat_atl AL151933 50.7000 -29.1000 EX 55 -4 20 37
1933268N29325 1933 60 NA NA NOT_NAMED 1933-09-28 03:00:00 ET 51.5290 -28.0936 main 1202 1123 P_____________ AL151933 51.5290 -28.0936 EX 55 -4 21 39
1933268N29325 1933 60 NA NA NOT_NAMED 1933-09-28 06:00:00 ET 52.3000 -27.0000 55 hurdat_atl main 1116 1038 O_____________ hurdat_atl AL151933 52.3000 -27.0000 EX 55 -4 20 44
1933268N29325 1933 60 NA NA NOT_NAMED 1933-09-28 09:00:00 ET 52.9426 -25.8274 main 1032 953 P_____________ AL151933 52.9426 -25.8274 EX 50 -4 19 50
1933268N29325 1933 60 NA NA NOT_NAMED 1933-09-28 12:00:00 ET 53.5000 -24.6000 45 hurdat_atl main 946 O_____________ hurdat_atl AL151933 53.5000 -24.6000 EX 45 -4 18 53

About IBTrACS Database

This database is a web-friendly format of International Best Track Archive for Climate Stewardship (IBTrACS), a global best track data archive curated by NOAA dating back to 1842.

Updated: 2021-10-08